sensor_id;sensor_type;location;lat;lon;timestamp;pressure;altitude;pressure_sealevel;temperature;humidity
5380;BME280;2713;42.680;23.310;2023-02-28T00:00:00;95512.09;;;10.40;82.38
5380;BME280;2713;42.680;23.310;2023-02-28T00:02:35;95519.34;;;10.53;81.31
5380;BME280;2713;42.680;23.310;2023-02-28T00:05:02;95513.34;;;10.52;80.64
5380;BME280;2713;42.680;23.310;2023-02-28T00:07:30;95527.84;;;10.47;80.42
5380;BME280;2713;42.680;23.310;2023-02-28T00:09:57;95523.50;;;10.23;81.63
5380;BME280;2713;42.680;23.310;2023-02-28T00:12:24;95516.06;;;10.20;82.54
5380;BME280;2713;42.680;23.310;2023-02-28T00:14:51;95517.78;;;10.44;81.09
5380;BME280;2713;42.680;23.310;2023-02-28T00:17:19;95531.53;;;10.60;80.82
5380;BME280;2713;42.680;23.310;2023-02-28T00:19:47;95523.47;;;10.39;81.87
5380;BME280;2713;42.680;23.310;2023-02-28T00:22:15;95533.53;;;10.42;81.93
5380;BME280;2713;42.680;23.310;2023-02-28T00:24:42;95545.00;;;10.56;81.00
5380;BME280;2713;42.680;23.310;2023-02-28T00:27:09;95539.72;;;10.33;81.53
5380;BME280;2713;42.680;23.310;2023-02-28T00:29:36;95547.13;;;10.60;80.34
5380;BME280;2713;42.680;23.310;2023-02-28T00:32:04;95539.63;;;10.65;80.17
5380;BME280;2713;42.680;23.310;2023-02-28T00:34:32;95537.34;;;10.62;80.78
5380;BME280;2713;42.680;23.310;2023-02-28T00:37:04;95542.34;;;10.80;80.22
5380;BME280;2713;42.680;23.310;2023-02-28T00:39:33;95542.69;;;10.77;79.77
5380;BME280;2713;42.680;23.310;2023-02-28T00:42:00;95550.03;;;10.65;79.86
5380;BME280;2713;42.680;23.310;2023-02-28T00:44:28;95541.13;;;10.60;80.75
5380;BME280;2713;42.680;23.310;2023-02-28T00:46:54;95542.13;;;10.51;79.59
5380;BME280;2713;42.680;23.310;2023-02-28T00:49:23;95532.56;;;10.43;80.67
5380;BME280;2713;42.680;23.310;2023-02-28T00:51:52;95532.81;;;10.64;79.85
5380;BME280;2713;42.680;23.310;2023-02-28T00:54:20;95528.78;;;10.54;80.32
5380;BME280;2713;42.680;23.310;2023-02-28T00:56:47;95535.09;;;10.59;79.19
5380;BME280;2713;42.680;23.310;2023-02-28T00:59:15;95532.13;;;10.71;79.33
5380;BME280;2713;42.680;23.310;2023-02-28T01:01:44;95537.69;;;10.67;79.58
5380;BME280;2713;42.680;23.310;2023-02-28T01:04:11;95543.84;;;10.66;79.35
5380;BME280;2713;42.680;23.310;2023-02-28T01:06:38;95529.53;;;10.71;79.50
5380;BME280;2713;42.680;23.310;2023-02-28T01:09:11;95538.66;;;10.58;80.08
5380;BME280;2713;42.680;23.310;2023-02-28T01:11:38;95522.50;;;10.40;79.98
5380;BME280;2713;42.680;23.310;2023-02-28T01:14:07;95535.16;;;10.43;80.36
5380;BME280;2713;42.680;23.310;2023-02-28T01:16:36;95534.69;;;10.32;80.77
5380;BME280;2713;42.680;23.310;2023-02-28T01:19:03;95528.81;;;10.46;80.31
5380;BME280;2713;42.680;23.310;2023-02-28T01:21:30;95518.91;;;10.41;79.93
5380;BME280;2713;42.680;23.310;2023-02-28T01:23:57;95528.72;;;10.23;81.30
5380;BME280;2713;42.680;23.310;2023-02-28T01:26:26;95537.41;;;10.38;80.67
5380;BME280;2713;42.680;23.310;2023-02-28T01:28:53;95527.75;;;10.16;81.02
5380;BME280;2713;42.680;23.310;2023-02-28T01:31:20;95530.50;;;9.98;81.71
5380;BME280;2713;42.680;23.310;2023-02-28T01:33:48;95523.19;;;10.02;80.87
5380;BME280;2713;42.680;23.310;2023-02-28T01:36:17;95526.41;;;10.12;81.29
5380;BME280;2713;42.680;23.310;2023-02-28T01:38:45;95524.31;;;10.15;81.18
5380;BME280;2713;42.680;23.310;2023-02-28T01:41:16;95530.97;;;10.18;80.75
5380;BME280;2713;42.680;23.310;2023-02-28T01:43:56;95533.22;;;10.29;79.55
5380;BME280;2713;42.680;23.310;2023-02-28T01:46:24;95526.59;;;10.02;80.37
5380;BME280;2713;42.680;23.310;2023-02-28T01:48:57;95537.78;;;10.03;80.09
5380;BME280;2713;42.680;23.310;2023-02-28T01:51:30;95547.53;;;9.93;81.40
5380;BME280;2713;42.680;23.310;2023-02-28T01:54:00;95534.69;;;10.07;80.49
5380;BME280;2713;42.680;23.310;2023-02-28T01:56:32;95538.63;;;10.20;79.48
5380;BME280;2713;42.680;23.310;2023-02-28T01:59:01;95538.28;;;10.31;78.53
5380;BME280;2713;42.680;23.310;2023-02-28T02:01:29;95544.25;;;10.31;79.17
5380;BME280;2713;42.680;23.310;2023-02-28T02:04:01;95523.22;;;9.86;80.48
5380;BME280;2713;42.680;23.310;2023-02-28T02:06:31;95547.84;;;10.14;80.44
5380;BME280;2713;42.680;23.310;2023-02-28T02:09:01;95539.56;;;10.10;80.15
5380;BME280;2713;42.680;23.310;2023-02-28T02:11:28;95540.06;;;9.90;81.40
5380;BME280;2713;42.680;23.310;2023-02-28T02:14:10;95541.50;;;10.08;80.43
5380;BME280;2713;42.680;23.310;2023-02-28T02:16:51;95533.38;;;10.11;80.13
5380;BME280;2713;42.680;23.310;2023-02-28T02:19:52;95530.63;;;10.13;79.69
5380;BME280;2713;42.680;23.310;2023-02-28T02:25:31;95533.25;;;9.89;80.26
5380;BME280;2713;42.680;23.310;2023-02-28T02:28:23;95527.41;;;9.87;80.40
5380;BME280;2713;42.680;23.310;2023-02-28T02:37:14;95528.22;;;9.87;80.16
5380;BME280;2713;42.680;23.310;2023-02-28T02:39:48;95535.19;;;9.71;81.95
5380;BME280;2713;42.680;23.310;2023-02-28T02:42:22;95536.19;;;9.86;81.63
5380;BME280;2713;42.680;23.310;2023-02-28T02:44:56;95531.47;;;9.73;81.56
5380;BME280;2713;42.680;23.310;2023-02-28T02:47:26;95547.53;;;9.60;82.40
5380;BME280;2713;42.680;23.310;2023-02-28T02:49:56;95544.44;;;9.81;81.92
5380;BME280;2713;42.680;23.310;2023-02-28T02:52:31;95545.44;;;9.96;80.44
5380;BME280;2713;42.680;23.310;2023-02-28T02:55:00;95544.44;;;9.97;80.39
5380;BME280;2713;42.680;23.310;2023-02-28T02:57:32;95543.16;;;10.09;80.31
5380;BME280;2713;42.680;23.310;2023-02-28T03:00:03;95540.06;;;9.90;81.16
5380;BME280;2713;42.680;23.310;2023-02-28T03:02:34;95551.41;;;10.05;80.70
5380;BME280;2713;42.680;23.310;2023-02-28T03:05:05;95551.75;;;10.02;80.17
5380;BME280;2713;42.680;23.310;2023-02-28T03:07:35;95557.59;;;9.96;80.02
5380;BME280;2713;42.680;23.310;2023-02-28T03:10:03;95562.16;;;10.10;79.42
5380;BME280;2713;42.680;23.310;2023-02-28T03:13:08;95562.13;;;9.94;79.90
5380;BME280;2713;42.680;23.310;2023-02-28T03:15:45;95575.13;;;9.86;80.24
5380;BME280;2713;42.680;23.310;2023-02-28T03:18:18;95572.69;;;9.92;80.48
5380;BME280;2713;42.680;23.310;2023-02-28T03:20:51;95573.50;;;9.85;80.59
5380;BME280;2713;42.680;23.310;2023-02-28T03:23:29;95584.53;;;9.95;80.13
5380;BME280;2713;42.680;23.310;2023-02-28T03:26:04;95585.16;;;9.97;80.31
5380;BME280;2713;42.680;23.310;2023-02-28T03:28:40;95583.56;;;9.88;80.60
5380;BME280;2713;42.680;23.310;2023-02-28T03:31:14;95588.59;;;9.97;80.59
5380;BME280;2713;42.680;23.310;2023-02-28T03:33:45;95590.84;;;10.00;80.00
5380;BME280;2713;42.680;23.310;2023-02-28T03:36:22;95594.94;;;10.03;79.89
5380;BME280;2713;42.680;23.310;2023-02-28T03:38:54;95596.53;;;10.04;79.38
5380;BME280;2713;42.680;23.310;2023-02-28T03:41:27;95603.69;;;10.10;79.67
5380;BME280;2713;42.680;23.310;2023-02-28T03:44:01;95591.19;;;9.97;79.92
5380;BME280;2713;42.680;23.310;2023-02-28T03:46:33;95595.25;;;10.00;80.32
5380;BME280;2713;42.680;23.310;2023-02-28T03:49:07;95575.78;;;9.72;81.65
5380;BME280;2713;42.680;23.310;2023-02-28T03:51:36;95593.94;;;9.80;81.29
5380;BME280;2713;42.680;23.310;2023-02-28T03:54:09;95603.19;;;9.82;81.26
5380;BME280;2713;42.680;23.310;2023-02-28T03:56:41;95598.66;;;9.92;80.94
5380;BME280;2713;42.680;23.310;2023-02-28T03:59:13;95607.09;;;10.02;80.52
5380;BME280;2713;42.680;23.310;2023-02-28T04:01:43;95601.56;;;9.97;80.84
5380;BME280;2713;42.680;23.310;2023-02-28T04:04:11;95592.31;;;9.95;80.96
5380;BME280;2713;42.680;23.310;2023-02-28T04:06:39;95605.44;;;9.77;81.50
5380;BME280;2713;42.680;23.310;2023-02-28T04:09:09;95594.25;;;9.68;81.73
5380;BME280;2713;42.680;23.310;2023-02-28T04:11:38;95602.06;;;9.85;81.55
5380;BME280;2713;42.680;23.310;2023-02-28T04:14:06;95595.88;;;9.78;81.01
5380;BME280;2713;42.680;23.310;2023-02-28T04:16:35;95593.09;;;9.55;82.74
5380;BME280;2713;42.680;23.310;2023-02-28T04:19:03;95592.78;;;9.58;82.46
5380;BME280;2713;42.680;23.310;2023-02-28T04:21:31;95593.44;;;9.60;82.02
5380;BME280;2713;42.680;23.310;2023-02-28T04:23:58;95598.28;;;9.63;82.35
5380;BME280;2713;42.680;23.310;2023-02-28T04:26:29;95592.94;;;9.73;81.62
5380;BME280;2713;42.680;23.310;2023-02-28T04:28:56;95596.78;;;9.36;83.27
5380;BME280;2713;42.680;23.310;2023-02-28T04:31:23;95595.66;;;9.31;83.09
5380;BME280;2713;42.680;23.310;2023-02-28T04:33:50;95604.19;;;9.15;83.62
5380;BME280;2713;42.680;23.310;2023-02-28T04:36:17;95590.06;;;9.09;84.57
5380;BME280;2713;42.680;23.310;2023-02-28T04:38:44;95600.84;;;9.39;83.35
5380;BME280;2713;42.680;23.310;2023-02-28T04:41:12;95596.16;;;9.42;83.17
5380;BME280;2713;42.680;23.310;2023-02-28T04:43:40;95610.56;;;9.37;83.54
5380;BME280;2713;42.680;23.310;2023-02-28T04:46:07;95582.19;;;8.85;84.12
5380;BME280;2713;42.680;23.310;2023-02-28T04:48:36;95604.19;;;8.73;84.64
5380;BME280;2713;42.680;23.310;2023-02-28T04:51:04;95621.56;;;8.55;86.08
5380;BME280;2713;42.680;23.310;2023-02-28T04:53:32;95626.94;;;8.36;87.54
5380;BME280;2713;42.680;23.310;2023-02-28T04:55:59;95619.94;;;8.28;88.17
5380;BME280;2713;42.680;23.310;2023-02-28T04:58:26;95624.81;;;8.31;88.60
5380;BME280;2713;42.680;23.310;2023-02-28T05:01:01;95635.88;;;8.67;87.44
5380;BME280;2713;42.680;23.310;2023-02-28T05:03:28;95634.41;;;8.90;85.97
5380;BME280;2713;42.680;23.310;2023-02-28T05:05:55;95625.88;;;9.06;84.99
5380;BME280;2713;42.680;23.310;2023-02-28T05:08:22;95631.69;;;9.08;84.52
5380;BME280;2713;42.680;23.310;2023-02-28T05:10:49;95626.75;;;9.23;84.29
5380;BME280;2713;42.680;23.310;2023-02-28T05:13:15;95630.47;;;9.28;83.30
5380;BME280;2713;42.680;23.310;2023-02-28T05:15:42;95627.78;;;8.96;84.83
5380;BME280;2713;42.680;23.310;2023-02-28T05:18:10;95608.25;;;8.76;85.23
5380;BME280;2713;42.680;23.310;2023-02-28T05:20:37;95629.09;;;9.08;85.00
5380;BME280;2713;42.680;23.310;2023-02-28T05:23:04;95634.66;;;9.13;84.61
5380;BME280;2713;42.680;23.310;2023-02-28T05:25:31;95642.03;;;9.34;84.42
5380;BME280;2713;42.680;23.310;2023-02-28T05:27:57;95643.75;;;9.25;84.22
5380;BME280;2713;42.680;23.310;2023-02-28T05:30:24;95651.22;;;9.28;83.57
5380;BME280;2713;42.680;23.310;2023-02-28T05:32:51;95652.19;;;9.19;84.57
5380;BME280;2713;42.680;23.310;2023-02-28T05:35:19;95652.22;;;9.35;83.80
5380;BME280;2713;42.680;23.310;2023-02-28T05:37:46;95650.25;;;9.21;83.68
5380;BME280;2713;42.680;23.310;2023-02-28T05:40:13;95652.25;;;9.43;82.87
5380;BME280;2713;42.680;23.310;2023-02-28T05:42:41;95651.13;;;9.46;83.33
5380;BME280;2713;42.680;23.310;2023-02-28T05:45:08;95666.09;;;9.60;81.61
5380;BME280;2713;42.680;23.310;2023-02-28T05:47:35;95658.81;;;9.55;82.48
5380;BME280;2713;42.680;23.310;2023-02-28T05:50:03;95659.41;;;9.49;82.46
5380;BME280;2713;42.680;23.310;2023-02-28T05:52:31;95664.75;;;9.40;82.60
5380;BME280;2713;42.680;23.310;2023-02-28T05:54:58;95668.47;;;9.45;83.03
5380;BME280;2713;42.680;23.310;2023-02-28T05:57:24;95672.75;;;9.62;81.38
5380;BME280;2713;42.680;23.310;2023-02-28T05:59:51;95663.00;;;9.48;82.16
5380;BME280;2713;42.680;23.310;2023-02-28T06:02:18;95674.84;;;9.59;81.80
5380;BME280;2713;42.680;23.310;2023-02-28T06:04:45;95664.66;;;9.65;81.92
5380;BME280;2713;42.680;23.310;2023-02-28T06:07:12;95661.88;;;9.51;82.21
5380;BME280;2713;42.680;23.310;2023-02-28T06:09:40;95665.75;;;9.47;82.02
5380;BME280;2713;42.680;23.310;2023-02-28T06:12:07;95662.72;;;9.67;81.72
5380;BME280;2713;42.680;23.310;2023-02-28T06:14:35;95665.94;;;9.69;81.41
5380;BME280;2713;42.680;23.310;2023-02-28T06:17:03;95660.44;;;9.73;81.70
5380;BME280;2713;42.680;23.310;2023-02-28T06:19:30;95664.19;;;9.78;81.68
5380;BME280;2713;42.680;23.310;2023-02-28T06:21:57;95666.00;;;9.86;80.84
5380;BME280;2713;42.680;23.310;2023-02-28T06:24:26;95667.75;;;9.77;81.26
5380;BME280;2713;42.680;23.310;2023-02-28T06:26:55;95667.28;;;9.90;81.13
5380;BME280;2713;42.680;23.310;2023-02-28T06:29:24;95667.78;;;9.85;80.53
5380;BME280;2713;42.680;23.310;2023-02-28T06:31:50;95671.19;;;9.86;80.81
5380;BME280;2713;42.680;23.310;2023-02-28T06:34:17;95683.97;;;9.71;80.84
5380;BME280;2713;42.680;23.310;2023-02-28T06:36:44;95685.75;;;9.71;80.72
5380;BME280;2713;42.680;23.310;2023-02-28T06:39:11;95682.84;;;9.74;79.84
5380;BME280;2713;42.680;23.310;2023-02-28T06:41:38;95686.91;;;9.68;80.84
5380;BME280;2713;42.680;23.310;2023-02-28T06:44:11;95689.66;;;9.75;80.50
5380;BME280;2713;42.680;23.310;2023-02-28T06:46:38;95680.84;;;9.51;81.50
5380;BME280;2713;42.680;23.310;2023-02-28T06:49:05;95691.16;;;9.85;80.78
5380;BME280;2713;42.680;23.310;2023-02-28T06:51:34;95690.53;;;9.99;80.53
5380;BME280;2713;42.680;23.310;2023-02-28T06:54:01;95698.47;;;9.98;80.13
5380;BME280;2713;42.680;23.310;2023-02-28T06:56:28;95695.91;;;10.14;79.87
5380;BME280;2713;42.680;23.310;2023-02-28T06:58:55;95702.03;;;9.97;80.68
5380;BME280;2713;42.680;23.310;2023-02-28T07:01:23;95696.88;;;10.13;79.98
5380;BME280;2713;42.680;23.310;2023-02-28T07:03:50;95695.22;;;10.04;79.63
5380;BME280;2713;42.680;23.310;2023-02-28T07:06:18;95695.78;;;10.24;78.82
5380;BME280;2713;42.680;23.310;2023-02-28T07:08:46;95697.03;;;10.11;79.01
5380;BME280;2713;42.680;23.310;2023-02-28T07:11:12;95692.47;;;9.97;79.51
5380;BME280;2713;42.680;23.310;2023-02-28T07:13:39;95693.94;;;10.08;79.05
5380;BME280;2713;42.680;23.310;2023-02-28T07:16:09;95693.94;;;10.00;79.60
5380;BME280;2713;42.680;23.310;2023-02-28T07:18:37;95696.69;;;9.98;79.52
5380;BME280;2713;42.680;23.310;2023-02-28T07:21:06;95690.34;;;9.85;80.32
5380;BME280;2713;42.680;23.310;2023-02-28T07:23:33;95693.47;;;10.12;79.60
5380;BME280;2713;42.680;23.310;2023-02-28T07:26:00;95697.22;;;10.10;79.65
5380;BME280;2713;42.680;23.310;2023-02-28T07:28:27;95706.00;;;10.17;78.58
5380;BME280;2713;42.680;23.310;2023-02-28T07:30:54;95697.56;;;10.15;79.23
5380;BME280;2713;42.680;23.310;2023-02-28T07:33:21;95700.81;;;10.25;78.87
5380;BME280;2713;42.680;23.310;2023-02-28T07:35:50;95697.91;;;10.44;78.49
5380;BME280;2713;42.680;23.310;2023-02-28T07:38:17;95695.63;;;10.33;78.59
5380;BME280;2713;42.680;23.310;2023-02-28T07:40:44;95692.34;;;10.31;78.97
5380;BME280;2713;42.680;23.310;2023-02-28T07:43:10;95700.66;;;10.43;78.35
5380;BME280;2713;42.680;23.310;2023-02-28T07:45:37;95699.84;;;10.42;78.09
5380;BME280;2713;42.680;23.310;2023-02-28T07:48:04;95699.84;;;10.50;77.44
5380;BME280;2713;42.680;23.310;2023-02-28T07:50:31;95693.00;;;10.41;78.12
5380;BME280;2713;42.680;23.310;2023-02-28T07:52:59;95703.09;;;10.52;78.42
5380;BME280;2713;42.680;23.310;2023-02-28T07:55:26;95688.00;;;10.48;78.58
5380;BME280;2713;42.680;23.310;2023-02-28T07:57:53;95691.22;;;10.42;79.06
5380;BME280;2713;42.680;23.310;2023-02-28T08:00:21;95687.97;;;10.56;77.94
5380;BME280;2713;42.680;23.310;2023-02-28T08:02:48;95687.16;;;10.63;78.28
5380;BME280;2713;42.680;23.310;2023-02-28T08:05:15;95687.94;;;10.72;78.20
5380;BME280;2713;42.680;23.310;2023-02-28T08:07:41;95675.91;;;10.79;77.87
5380;BME280;2713;42.680;23.310;2023-02-28T08:10:12;95690.03;;;11.01;77.50
5380;BME280;2713;42.680;23.310;2023-02-28T08:12:38;95693.34;;;10.79;78.26
5380;BME280;2713;42.680;23.310;2023-02-28T08:15:06;95687.13;;;10.96;77.80
5380;BME280;2713;42.680;23.310;2023-02-28T08:17:33;95688.41;;;11.00;77.88
5380;BME280;2713;42.680;23.310;2023-02-28T08:20:00;95695.38;;;11.07;77.15
5380;BME280;2713;42.680;23.310;2023-02-28T08:22:27;95688.38;;;11.08;77.66
5380;BME280;2713;42.680;23.310;2023-02-28T08:24:54;95693.44;;;11.01;78.38
5380;BME280;2713;42.680;23.310;2023-02-28T08:27:22;95695.72;;;10.96;79.00
5380;BME280;2713;42.680;23.310;2023-02-28T08:29:49;95698.13;;;11.14;78.46
5380;BME280;2713;42.680;23.310;2023-02-28T08:32:15;95696.31;;;11.23;77.81
5380;BME280;2713;42.680;23.310;2023-02-28T08:34:42;95681.47;;;11.31;77.57
5380;BME280;2713;42.680;23.310;2023-02-28T08:37:09;95698.41;;;11.27;78.33
5380;BME280;2713;42.680;23.310;2023-02-28T08:39:36;95695.44;;;11.38;77.75
5380;BME280;2713;42.680;23.310;2023-02-28T08:42:04;95693.31;;;11.42;78.37
5380;BME280;2713;42.680;23.310;2023-02-28T08:44:32;95693.78;;;11.45;78.20
5380;BME280;2713;42.680;23.310;2023-02-28T08:46:59;95695.19;;;11.17;79.66
5380;BME280;2713;42.680;23.310;2023-02-28T08:49:26;95682.63;;;11.29;78.91
5380;BME280;2713;42.680;23.310;2023-02-28T08:51:54;95690.44;;;11.29;79.00
5380;BME280;2713;42.680;23.310;2023-02-28T08:54:22;95690.59;;;11.27;79.22
5380;BME280;2713;42.680;23.310;2023-02-28T08:56:49;95695.16;;;11.25;79.61
5380;BME280;2713;42.680;23.310;2023-02-28T08:59:16;95659.78;;;11.08;79.24
5380;BME280;2713;42.680;23.310;2023-02-28T09:01:44;95695.28;;;11.40;79.15
5380;BME280;2713;42.680;23.310;2023-02-28T09:04:11;95683.72;;;11.42;79.22
5380;BME280;2713;42.680;23.310;2023-02-28T09:06:38;95700.91;;;11.51;79.45
5380;BME280;2713;42.680;23.310;2023-02-28T09:09:05;95691.59;;;11.65;78.70
5380;BME280;2713;42.680;23.310;2023-02-28T09:11:33;95681.94;;;11.35;79.21
5380;BME280;2713;42.680;23.310;2023-02-28T09:14:00;95686.00;;;11.37;78.54
5380;BME280;2713;42.680;23.310;2023-02-28T09:16:28;95691.25;;;11.29;78.70
5380;BME280;2713;42.680;23.310;2023-02-28T09:18:57;95684.78;;;11.17;79.50
5380;BME280;2713;42.680;23.310;2023-02-28T09:21:24;95681.19;;;11.18;79.39
5380;BME280;2713;42.680;23.310;2023-02-28T09:23:51;95694.34;;;11.33;78.95
5380;BME280;2713;42.680;23.310;2023-02-28T09:26:19;95696.81;;;11.18;79.07
5380;BME280;2713;42.680;23.310;2023-02-28T09:28:47;95693.25;;;11.11;80.13
5380;BME280;2713;42.680;23.310;2023-02-28T09:31:16;95684.81;;;11.09;79.53
5380;BME280;2713;42.680;23.310;2023-02-28T09:33:46;95686.38;;;11.26;79.15
5380;BME280;2713;42.680;23.310;2023-02-28T09:36:14;95682.13;;;11.33;78.48
5380;BME280;2713;42.680;23.310;2023-02-28T09:38:41;95693.53;;;11.24;78.96
5380;BME280;2713;42.680;23.310;2023-02-28T09:41:13;95690.03;;;11.01;80.21
5380;BME280;2713;42.680;23.310;2023-02-28T09:43:44;95687.13;;;10.88;80.59
5380;BME280;2713;42.680;23.310;2023-02-28T09:46:21;95666.59;;;11.09;80.31
5380;BME280;2713;42.680;23.310;2023-02-28T09:48:52;95687.84;;;11.20;80.19
5380;BME280;2713;42.680;23.310;2023-02-28T09:51:33;95678.63;;;11.10;80.87
5380;BME280;2713;42.680;23.310;2023-02-28T09:54:01;95677.91;;;11.32;80.01
5380;BME280;2713;42.680;23.310;2023-02-28T09:56:39;95668.91;;;11.43;79.91
5380;BME280;2713;42.680;23.310;2023-02-28T09:59:17;95670.56;;;11.44;79.38
5380;BME280;2713;42.680;23.310;2023-02-28T10:01:52;95672.41;;;11.58;79.34
5380;BME280;2713;42.680;23.310;2023-02-28T10:04:36;95665.19;;;11.76;78.44
5380;BME280;2713;42.680;23.310;2023-02-28T10:07:16;95667.81;;;11.76;78.77
5380;BME280;2713;42.680;23.310;2023-02-28T10:09:47;95663.88;;;11.80;78.38
5380;BME280;2713;42.680;23.310;2023-02-28T10:12:16;95648.13;;;11.65;78.59
5380;BME280;2713;42.680;23.310;2023-02-28T10:14:46;95656.41;;;12.00;78.62
5380;BME280;2713;42.680;23.310;2023-02-28T10:17:17;95648.94;;;11.97;77.66
5380;BME280;2713;42.680;23.310;2023-02-28T10:19:55;95648.81;;;11.59;79.00
5380;BME280;2713;42.680;23.310;2023-02-28T10:22:25;95642.09;;;11.34;79.37
5380;BME280;2713;42.680;23.310;2023-02-28T10:24:55;95649.91;;;11.34;80.49
5380;BME280;2713;42.680;23.310;2023-02-28T10:27:30;95641.09;;;11.43;80.00
5380;BME280;2713;42.680;23.310;2023-02-28T10:29:59;95640.03;;;11.30;80.30
5380;BME280;2713;42.680;23.310;2023-02-28T10:32:28;95632.50;;;11.35;80.20
5380;BME280;2713;42.680;23.310;2023-02-28T10:34:59;95638.88;;;11.24;80.32
5380;BME280;2713;42.680;23.310;2023-02-28T10:37:28;95619.91;;;11.15;80.03
5380;BME280;2713;42.680;23.310;2023-02-28T10:39:55;95629.78;;;11.28;79.92
5380;BME280;2713;42.680;23.310;2023-02-28T10:42:24;95615.41;;;11.40;78.73
5380;BME280;2713;42.680;23.310;2023-02-28T10:45:09;95608.53;;;11.78;78.29
5380;BME280;2713;42.680;23.310;2023-02-28T10:47:50;95609.53;;;11.77;77.97
5380;BME280;2713;42.680;23.310;2023-02-28T10:50:33;95600.66;;;11.55;78.08
5380;BME280;2713;42.680;23.310;2023-02-28T10:53:28;95597.00;;;11.73;77.81
5380;BME280;2713;42.680;23.310;2023-02-28T10:55:59;95587.03;;;11.99;76.67
5380;BME280;2713;42.680;23.310;2023-02-28T10:58:29;95585.38;;;12.06;76.67
5380;BME280;2713;42.680;23.310;2023-02-28T11:00:56;95586.25;;;11.98;76.71
5380;BME280;2713;42.680;23.310;2023-02-28T11:03:29;95580.25;;;12.12;76.48
5380;BME280;2713;42.680;23.310;2023-02-28T11:05:56;95580.03;;;12.37;75.46
5380;BME280;2713;42.680;23.310;2023-02-28T11:08:23;95575.69;;;12.66;74.40
5380;BME280;2713;42.680;23.310;2023-02-28T11:10:56;95572.28;;;12.81;73.52
5380;BME280;2713;42.680;23.310;2023-02-28T11:13:27;95578.00;;;12.47;73.89
5380;BME280;2713;42.680;23.310;2023-02-28T11:15:58;95575.50;;;12.53;74.33
5380;BME280;2713;42.680;23.310;2023-02-28T11:18:29;95576.97;;;12.33;73.81
5380;BME280;2713;42.680;23.310;2023-02-28T11:20:58;95558.72;;;12.33;74.33
5380;BME280;2713;42.680;23.310;2023-02-28T11:23:29;95561.91;;;12.29;74.66
5380;BME280;2713;42.680;23.310;2023-02-28T11:26:00;95563.25;;;12.39;74.33
5380;BME280;2713;42.680;23.310;2023-02-28T11:28:32;95573.47;;;12.26;73.52
5380;BME280;2713;42.680;23.310;2023-02-28T11:31:02;95570.69;;;11.90;74.98
5380;BME280;2713;42.680;23.310;2023-02-28T11:33:30;95571.91;;;12.17;74.92
5380;BME280;2713;42.680;23.310;2023-02-28T11:36:02;95557.97;;;12.62;73.38
5380;BME280;2713;42.680;23.310;2023-02-28T11:38:31;95568.94;;;12.87;72.11
5380;BME280;2713;42.680;23.310;2023-02-28T11:41:17;95557.97;;;12.77;72.51
5380;BME280;2713;42.680;23.310;2023-02-28T11:44:03;95554.16;;;12.35;73.06
5380;BME280;2713;42.680;23.310;2023-02-28T11:46:38;95555.63;;;12.00;74.83
5380;BME280;2713;42.680;23.310;2023-02-28T11:49:29;95558.69;;;12.04;74.97
5380;BME280;2713;42.680;23.310;2023-02-28T11:52:00;95555.91;;;12.05;75.46
5380;BME280;2713;42.680;23.310;2023-02-28T11:54:35;95550.09;;;12.18;75.37
5380;BME280;2713;42.680;23.310;2023-02-28T11:57:19;95554.59;;;12.24;74.66
5380;BME280;2713;42.680;23.310;2023-02-28T12:00:00;95551.47;;;12.29;74.33
5380;BME280;2713;42.680;23.310;2023-02-28T12:02:49;95550.66;;;12.28;74.23
5380;BME280;2713;42.680;23.310;2023-02-28T12:05:27;95559.19;;;12.22;74.23
5380;BME280;2713;42.680;23.310;2023-02-28T12:08:05;95551.47;;;12.29;73.64
5380;BME280;2713;42.680;23.310;2023-02-28T12:10:38;95555.50;;;12.31;73.03
5380;BME280;2713;42.680;23.310;2023-02-28T12:13:16;95552.25;;;12.14;74.29
5380;BME280;2713;42.680;23.310;2023-02-28T12:16:00;95554.66;;;12.01;74.53
5380;BME280;2713;42.680;23.310;2023-02-28T12:18:47;95543.00;;;11.89;73.97
5380;BME280;2713;42.680;23.310;2023-02-28T12:21:25;95543.22;;;12.02;74.25
5380;BME280;2713;42.680;23.310;2023-02-28T12:24:02;95544.34;;;12.23;73.67
5380;BME280;2713;42.680;23.310;2023-02-28T12:26:38;95551.22;;;12.38;73.09
5380;BME280;2713;42.680;23.310;2023-02-28T12:29:14;95549.25;;;12.03;72.95
5380;BME280;2713;42.680;23.310;2023-02-28T12:31:48;95546.16;;;11.85;74.30
5380;BME280;2713;42.680;23.310;2023-02-28T12:34:19;95545.09;;;11.94;73.08
5380;BME280;2713;42.680;23.310;2023-02-28T12:36:47;95549.34;;;12.09;73.02
5380;BME280;2713;42.680;23.310;2023-02-28T12:39:18;95533.88;;;12.45;72.78
5380;BME280;2713;42.680;23.310;2023-02-28T12:41:51;95541.31;;;12.48;71.47
5380;BME280;2713;42.680;23.310;2023-02-28T12:44:26;95532.41;;;11.91;72.97
5380;BME280;2713;42.680;23.310;2023-02-28T12:46:56;95541.56;;;11.87;73.32
5380;BME280;2713;42.680;23.310;2023-02-28T12:49:28;95537.53;;;11.99;73.07
5380;BME280;2713;42.680;23.310;2023-02-28T12:51:59;95536.09;;;12.19;72.77
5380;BME280;2713;42.680;23.310;2023-02-28T12:54:30;95539.13;;;12.23;72.48
5380;BME280;2713;42.680;23.310;2023-02-28T12:57:04;95533.44;;;12.04;72.71
5380;BME280;2713;42.680;23.310;2023-02-28T12:59:38;95530.28;;;12.09;72.56
5380;BME280;2713;42.680;23.310;2023-02-28T13:02:32;95530.28;;;12.09;71.84
5380;BME280;2713;42.680;23.310;2023-02-28T13:05:19;95538.19;;;12.01;72.21
5380;BME280;2713;42.680;23.310;2023-02-28T13:08:12;95532.00;;;12.02;72.00
5380;BME280;2713;42.680;23.310;2023-02-28T13:10:46;95533.66;;;12.17;71.81
5380;BME280;2713;42.680;23.310;2023-02-28T13:13:17;95531.31;;;12.23;71.72
5380;BME280;2713;42.680;23.310;2023-02-28T13:16:03;95533.91;;;12.08;71.42
5380;BME280;2713;42.680;23.310;2023-02-28T13:18:36;95524.75;;;12.12;71.56
5380;BME280;2713;42.680;23.310;2023-02-28T13:21:06;95534.72;;;12.08;71.92
5380;BME280;2713;42.680;23.310;2023-02-28T13:24:01;95524.34;;;12.00;71.95
5380;BME280;2713;42.680;23.310;2023-02-28T13:29:34;95521.13;;;12.13;72.50
5380;BME280;2713;42.680;23.310;2023-02-28T13:32:37;95521.50;;;12.10;72.43
5380;BME280;2713;42.680;23.310;2023-02-28T13:35:37;95523.19;;;11.88;72.44
5380;BME280;2713;42.680;23.310;2023-02-28T13:38:35;95522.41;;;12.17;72.80
5380;BME280;2713;42.680;23.310;2023-02-28T13:44:08;95518.03;;;12.47;70.71
5380;BME280;2713;42.680;23.310;2023-02-28T13:46:37;95497.88;;;12.11;71.44
5380;BME280;2713;42.680;23.310;2023-02-28T13:49:27;95513.72;;;12.25;71.63